x

9441102 - Westport, Wa (wptw1) Weather Station

10:36 - Mon 16th Jan 2017 All times are PST. -8 hours from GMT.

  • Wind
    10mph, 14mph gusts
  • Sea Temp 45°f
  • Aire Temp 46°f
  • Sea Pressure 1012.3mb
  • 9441102 - Westport, Wa
  • 9441102 - Westport, Wa

More Historic Weather Station data

Upgrade to MSW Pro to gain access to the past 30 days of data for over 8000 Wavebouys and Weather Stations around the globe.

Join Pro

Comparision Forecast

View Surf forecast
   
lun 01/16 10:36 10 14 mph 1012.3mb 45f 46f
10:30 10 13 mph 1012.4mb 45f 46f
10:24 9 11 mph 1012.4mb 45f 45f
10:18 9 13 mph 1012.4mb 45f 46f
10:12 9 11 mph 1012.5mb 45f 45f
10:06 9 14 mph 1012.6mb 45f 45f
10:00 11 14 mph 1012.6mb 45f 45f
9:36 9 13 mph 1012.9mb 45f 46f
9:30 10 13 mph 1012.9mb 45f 46f
9:24 10 14 mph 1013.2mb 45f 46f
9:18 10 13 mph 1013.2mb 45f 46f
9:12 10 11 mph 1013.3mb 45f 46f
9:06 9 14 mph 1013.5mb 45f 48f
9:00 9 11 mph 1013.6mb 45f 48f
8:36 9 11 mph 1013.9mb 45f 47f
8:30 8 11 mph 1014mb 45f 46f
8:24 7 11 mph 1014.1mb 45f 46f
8:18 8 10 mph 1014.1mb 45f 46f
8:12 9 11 mph 1014.1mb 45f 46f
8:06 7 9 mph 1014.3mb 45f 45f
8:00 8 10 mph 1014.3mb 45f 46f
7:36 7 9 mph 1014.5mb 45f 46f
7:30 7 9 mph 1014.5mb 45f 45f
7:24 7 9 mph 1014.5mb 45f 45f
7:18 7 9 mph 1014.5mb 45f 45f
7:12 7 9 mph 1014.6mb 45f 45f
7:06 7 11 mph 1014.4mb 45f 45f
7:00 9 11 mph 1014.5mb 45f 45f
6:36 9 11 mph 1014.8mb 45f 46f
6:30 9 11 mph 1014.9mb 45f 46f
6:24 9 10 mph 1015.2mb 45f 46f
6:18 9 11 mph 1015.1mb 45f 47f
6:12 8 10 mph 1015.4mb 45f 47f
6:06 7
mph
1015.5mb 45f 47f
6:00 5 6 mph 1015.6mb 45f 47f
5:36 6 8 mph 1015.3mb 46f 46f
5:30 6 9 mph 1015.4mb 46f 46f
5:24 8 9 mph 1015.3mb 46f 46f
5:18 8 9 mph 1015.4mb 46f 46f
5:12 7 8 mph 1015.5mb 46f 46f
5:06 7
mph
1015.5mb 46f 47f
5:00 5
mph
1015.7mb 46f 47f
4:36 6 7 mph 1015.6mb 47f 46f
4:30 6
mph
1015.5mb 47f 46f
4:24 5 7 mph 1015.6mb 47f 46f
4:18 3 6 mph 1015.5mb 47f 47f
4:12 6 10 mph 1015.3mb 47f 47f
4:06 11 14 mph 1014.9mb 47f 47f
4:00 13 14 mph 1014.9mb 47f 47f
3:36 8 9 mph 1015.9mb 46f 47f
3:30 7 8 mph 1015.8mb 46f 47f
3:24 6 7 mph 1016.1mb 46f 47f
3:18 6 8 mph 1016mb 46f 48f
3:12 8 9 mph 1015.9mb 46f 48f
3:06 7 8 mph 1016mb 46f 48f
3:00 7 8 mph 1016mb 46f 47f
2:36 8 11 mph 1015.9mb 46f 47f
2:30 11 14 mph 1016mb 46f 47f
2:24 10 11 mph 1016.4mb 46f 47f
2:18 9 13 mph 1016.3mb 46f 46f
2:12 9 14 mph 1016.4mb 45f 46f
2:06 11 14 mph 1016.4mb 45f 46f
2:00 9 13 mph 1016.6mb 45f 46f
1:36 14 16 mph 1017.2mb 45f 46f
1:30 11 16 mph 1017.4mb 45f 45f
1:24 14 16 mph 1017.7mb 45f 44f
1:18 10 13 mph 1018.1mb 44f 44f
1:12 7 14 mph 1018.2mb 44f 44f
1:06 11 14 mph 1018.2mb 45f 44f
1:00 13 15 mph 1018.1mb 45f 44f
12:36 10 14 mph 1018.6mb 45f 42f
12:30 10 13 mph 1018.8mb 45f 43f
12:24 7 10 mph 1018.9mb 45f 44f
12:18 7 10 mph 1018.9mb 45f 44f
12:12 8 10 mph 1018.8mb 45f 44f
12:06 9 11 mph 1018.7mb 45f 44f
12:00 7 10 mph 1018.7mb 45f 44f
11:36 7 9 mph 1018.9mb 45f 43f
11:30 6 11 mph 1019mb 45f 43f
11:24 9 11 mph 1019.2mb 45f 43f
11:18 8 10 mph 1019.4mb 45f 42f
11:12 3 7 mph 1019.5mb 45f 43f
11:06 6 8 mph 1019.5mb 45f 42f
11:00 8 11 mph 1019.5mb 45f 41f
10:36 11 14 mph 1019.6mb 45f 39f
10:30 10 13 mph 1020.1mb 45f 39f
10:24 9 15 mph 1020.1mb 45f 39f
10:18 14 15 mph 1020.3mb 45f 38f
10:12 11 14 mph 1020.4mb 45f 38f
10:06 9 15 mph 1020.5mb 45f 38f
10:00 13 16 mph 1020.5mb 45f 37f
9:36 8 9 mph 1020.6mb 45f 38f
9:30 7 8 mph 1020.7mb 45f 37f
9:24 6 9 mph 1020.6mb 45f 37f
9:18 7 9 mph 1020.6mb 45f 37f
9:12 7 10 mph 1020.5mb 45f 38f
9:06 8 10 mph 1020.5mb 45f 38f
9:00 8 10 mph 1020.6mb 44f 38f
8:36 2 9 mph 1020.7mb 44f 37f
8:30 9 11 mph 1020.4mb 44f 37f
8:24 9 13 mph 1020.4mb 44f 36f
8:18 11 13 mph 1020.5mb 44f 36f
8:12 10 14 mph 1020.5mb 45f 37f
8:06 13 15 mph 1020.4mb 45f 37f
8:00 13 15 mph 1020.6mb 45f 36f
7:36 15 17 mph 1020.5mb 45f 36f
7:30 14 16 mph 1020.5mb 45f 36f
7:24 14 17 mph 1020.6mb 45f 36f
7:18 15 18 mph 1020.6mb 45f 36f
7:12 15 17 mph 1020.7mb 45f 36f
7:06 14 17 mph 1020.6mb 45f 37f
7:00 15 18 mph 1020.6mb 45f 37f
6:36 11 16 mph 1020.8mb 45f 37f
6:30 15 17 mph 1020.9mb 45f 37f
6:24 14 16 mph 1021.2mb 45f 37f
6:18 13 16 mph 1021.4mb 45f 37f
6:12 15 17 mph 1021.4mb 45f 37f
6:06 14 16 mph 1021.6mb 45f 36f
6:00 14 17 mph 1021.7mb 45f 37f
5:36 13 14 mph 1021.9mb 47f 37f
5:30 11 15 mph 1022mb 47f 37f
5:24 13 15 mph 1021.9mb 47f 37f
5:18 13 15 mph 1021.9mb 47f 36f
5:12 11 14 mph 1022.1mb 47f 36f
5:06 10 13 mph 1022.1mb 47f 37f
5:00 11 14 mph 1022.2mb 47f 37f
4:36 9 11 mph 1022.7mb 47f 36f
4:30 10 11 mph 1022.8mb 47f 36f
4:24 8 10 mph 1022.9mb 47f 36f
4:18 9 11 mph 1022.8mb 47f 36f
4:12 9 11 mph 1022.9mb 47f 37f
4:06 10 11 mph 1022.9mb 47f 37f
4:00 10
mph
1023.2mb 47f 37f
3:36 9 11 mph 1023.3mb 47f 37f
3:30 9 10 mph 1023.4mb 47f 38f
3:24 8 9 mph 1023.5mb 47f 37f
3:18 8 11 mph 1023.5mb 46f 37f
3:12 11 13 mph 1023.3mb 46f 37f
3:06 9 11 mph 1023.3mb 46f 37f
3:00 8 11 mph 1023.4mb 46f 38f
2:36 8 11 mph 1023.2mb 46f 38f
2:30 9 11 mph 1023.3mb 46f 38f
2:24 11 14 mph 1023.3mb 46f 38f
2:18 11 13 mph 1023.4mb 46f 38f
2:12 9 11 mph 1023.6mb 46f 38f
2:06 7 9 mph 1023.7mb 46f 38f
2:00 7 10 mph 1023.4mb 46f 38f
1:36 8
mph
1023.4mb 44f 38f
1:30 8
mph
1023.3mb 44f 38f
1:24 6 7 mph 1023.4mb 44f 38f
1:18 6 7 mph 1023.5mb 44f 38f
1:12 6
mph
1023.4mb 44f 38f
1:06 6 8 mph 1023.2mb 44f 38f
1:00 8 9 mph 1023.4mb 44f 38f
12:36 3 6 mph 1023.8mb 44f 38f
12:30 5 7 mph 1023.6mb 44f 38f
12:24 7 9 mph 1023.6mb 44f 38f
12:18 9 11 mph 1023.5mb 44f 38f
12:12 10 11 mph 1023.6mb 44f 38f
12:06 8 10 mph 1023.6mb 44f 38f
12:00 9 10 mph 1023.5mb 44f 38f
dom 01/15 11:36 13 15 mph 1023.6mb 45f 37f
11:30 9 11 mph 1023.9mb 45f 37f
11:24 8 10 mph 1024mb 45f 37f
11:18 8 10 mph 1024mb 45f 37f
11:12 7 10 mph 1024.1mb 45f 37f
11:06 9 10 mph 1024mb 45f 37f
11:00 8 15 mph 1023.8mb 45f 37f
10:54 11 15 mph 1023.8mb 45f 37f
10:48 13 15 mph 1023.8mb 45f 37f
10:36 14 15 mph 1023.9mb 44f 37f
10:30 13 15 mph 1024.3mb 44f 37f
10:24 9 10 mph 1024.5mb 44f 37f
10:18 8 9 mph 1024.7mb 44f 37f
10:12 5 7 mph 1024.9mb 44f 37f
10:06 3 7 mph 1024.8mb 44f 37f
10:00 6 8 mph 1025mb 44f 37f
9:54 5 7 mph 1024.9mb 44f 38f
9:48 7 9 mph 1024.7mb 44f 38f
9:36 7 9 mph 1024.7mb 44f 37f
9:30 9 11 mph 1024.6mb 44f 37f
9:24 9 11 mph 1024.5mb 44f 37f
9:18 11
mph
1024.5mb 44f 37f
9:12 10 13 mph 1024.4mb 44f 37f
9:06 11 13 mph 1024.5mb 44f 37f
9:00 10 11 mph 1024.5mb 44f 37f
8:54 9 10 mph 1024.7mb 44f 37f
8:48 9 13 mph 1024.5mb 44f 38f
8:36 11 14 mph 1024.4mb 44f 39f
8:30 10 13 mph 1024.4mb 44f 38f
8:24 11 15 mph 1024.4mb 44f 38f
8:18 10 14 mph 1024.5mb 44f 38f
8:12 10 13 mph 1024.5mb 44f 38f
8:06 10 14 mph 1024.5mb 44f 39f
8:00 13 15 mph 1024.4mb 44f 39f
7:54 10 13 mph 1024.5mb 44f 39f
7:48 8 9 mph 1024.5mb 44f 40f
7:36 9 10 mph 1024.4mb 45f 40f
7:30 10 13 mph 1024.4mb 45f 40f
7:24 9 11 mph 1024.5mb 45f 40f
7:18 9 10 mph 1024.4mb 45f 40f
7:12 8 10 mph 1024.3mb 45f 40f
7:06 8 9 mph 1024.3mb 45f 40f
7:00 5 8 mph 1024.2mb 45f 40f
6:54 7 9 mph 1024.1mb 45f 40f
6:48 6 10 mph 1023.9mb 45f 40f
6:36 9 11 mph 1023.8mb 45f 40f
6:30 11 14 mph 1023.6mb 45f 40f
6:24 13 14 mph 1023.9mb 45f 40f
6:18 10 13 mph 1024mb 45f 40f
6:12 9 14 mph 1023.9mb 45f 41f
6:06 11 14 mph 1023.6mb 45f 41f
6:00 13 15 mph 1023.8mb 45f 41f
5:54 11 14 mph 1024mb 45f 42f
5:48 11 15 mph 1023.7mb 45f 42f
5:36 14 21 mph 1023.7mb 45f 42f
5:30 16 20 mph 1023.8mb 45f 43f
5:24 15 18 mph 1024mb 45f 43f
5:18 11 14 mph 1024.7mb 45f 43f
5:12 10 11 mph 1024.8mb 45f 44f
5:06 10 11 mph 1024.9mb 45f 44f
5:00 9 10 mph 1025mb 45f 44f
4:54 9 10 mph 1025.1mb 45f 44f
4:48 7 8 mph 1025.3mb 45f 44f
4:36 6 7 mph 1025.4mb 45f 44f
4:30 6 7 mph 1025.4mb 45f 44f
4:24 6 7 mph 1025.3mb 45f 44f
4:18 7 8 mph 1025.1mb 45f 45f
4:12 6 7 mph 1025.1mb 46f 45f
4:06 6 7 mph 1025.1mb 46f 46f
4:00 5 7 mph 1025mb 46f 46f
3:54 7
mph
1024.9mb 46f 46f
3:48 6 8 mph 1024.9mb 46f 46f
3:36 7 10 mph 1024.8mb 46f 46f
3:30 7 9 mph 1024.8mb 46f 47f
3:24 7 10 mph 1024.8mb 46f 46f
3:18 9 10 mph 1024.8mb 46f 46f
3:12 8 10 mph 1024.8mb 46f 46f
3:06 7 11 mph 1024.6mb 46f 46f
3:00 9 11 mph 1024.6mb 46f 46f
2:54 8 10 mph 1024.6mb 46f 46f
2:48 7 10 mph 1024.6mb 46f 46f
2:36 7 13 mph 1024.4mb 46f 46f
2:30 10 14 mph 1024.4mb 46f 46f
2:24 10 13 mph 1024.3mb 46f 45f
2:18 10 13 mph 1024.2mb 46f 45f
2:12 11 14 mph 1024.2mb 46f 44f
2:06 10 16 mph 1024.1mb 46f 43f
2:00 14 16 mph 1024.1mb 45f 43f
1:54 13 15 mph 1024.2mb 45f 43f
1:48 10 15 mph 1024.3mb 45f 44f
1:36 9 14 mph 1024.4mb 45f 45f
1:30 7 11 mph 1024.6mb 45f 45f
1:24 9 13 mph 1024.6mb 45f 44f
1:18 10 14 mph 1024.6mb 45f 43f
1:12 10 14 mph 1024.7mb 45f 43f
1:06 13 15 mph 1024.6mb 45f 42f
1:00 11 15 mph 1024.6mb 45f 43f
12:54 8 15 mph 1024.6mb 44f 43f
12:48 11 15 mph 1024.6mb 44f 42f
12:36 11 15 mph 1024.6mb 44f 41f
12:30 13 15 mph 1024.6mb 44f 41f
12:24 11 15 mph 1024.6mb 44f 41f
12:18 13 15 mph 1024.5mb 44f 41f
12:12 13 16 mph 1024.5mb 44f 40f
12:06 13 16 mph 1024.5mb 44f 40f
12:00 11 15 mph 1024.5mb 44f 40f
11:54 11 16 mph 1024.4mb 44f 40f
11:48 14 16 mph 1024.7mb 44f 39f
11:36 10 13 mph 1024.9mb 44f 40f
11:30 9 14 mph 1024.9mb 44f 39f
11:24 10 13 mph 1024.9mb 44f 39f
11:18 10 13 mph 1024.9mb 44f 39f
11:12 8 13 mph 1025mb 44f 39f
11:06 9 11 mph 1025.1mb 44f 38f
11:00 8 13 mph 1025.2mb 44f 38f
10:54 9 10 mph 1025.2mb 44f 38f
10:48 8 11 mph 1025.3mb 44f 37f
10:36 6 9 mph 1025.5mb 44f 38f
10:30 8 10 mph 1025.5mb 45f 37f
10:24 9 10 mph 1025.5mb 45f 37f
10:18 7 8 mph 1025.5mb 45f 37f
10:12 6 8 mph 1025.4mb 45f 37f
10:06 8 11 mph 1025.3mb 45f 36f
10:00 10 11 mph 1025.4mb 45f 35f
9:54 10 11 mph 1025.4mb 45f 35f
9:48 10 11 mph 1025.3mb 45f 35f
9:36 8 10 mph 1025.5mb 45f 34f
9:30 8 9 mph 1025.5mb 45f 34f
9:24 8 13 mph 1025.5mb 45f 34f
9:18 10 13 mph 1025.5mb 44f 34f
9:12 10 13 mph 1025.6mb 44f 34f
9:06 9 14 mph 1025.5mb 44f 34f
9:00 10 13 mph 1025.5mb 44f 34f
8:54 11 14 mph 1025.5mb 44f 34f
8:48 11 15 mph 1025.4mb 44f 34f
8:36 13 15 mph 1025.2mb 44f 34f
8:30 14 16 mph 1025.3mb 44f 34f
8:24 13 14 mph 1025.2mb 44f 34f
8:18 11 14 mph 1025.3mb 44f 34f
8:12 11 13 mph 1025.2mb 44f 34f
8:06 11 13 mph 1025.1mb 44f 33f
8:00 10 14 mph 1025mb 44f 33f
7:54 13 14 mph 1024.9mb 44f 33f
7:48 11 15 mph 1025mb 44f 33f
7:36 14 16 mph 1025.1mb 44f 34f
7:30 13 16 mph 1025mb 44f 34f
7:24 14 16 mph 1025mb 44f 34f
7:18 11 14 mph 1024.9mb 44f 34f
7:12 11 14 mph 1024.7mb 45f 33f
7:06 9 10 mph 1024.6mb 45f 33f
7:00 10 11 mph 1024.5mb 45f 33f
6:54 10 11 mph 1024.5mb 45f 32f
6:48 11 14 mph 1024.5mb 45f 32f
6:36 11 14 mph 1024.5mb 45f 32f
6:30 13 14 mph 1024.7mb 45f 32f
6:24 11 13 mph 1024.7mb 45f 32f
6:18 10 13 mph 1024.8mb 45f 33f
6:12 10 13 mph 1024.9mb 45f 33f
6:06 10 11 mph 1025mb 45f 34f
6:00 11 14 mph 1025.1mb 45f 34f
5:36 10 14 mph 1025.4mb 45f 34f
5:30 10 13 mph 1025.4mb 45f 34f
5:24 11 13 mph 1025.3mb 45f 34f
5:18 11 14 mph 1025.3mb 45f 34f
5:12 11 15 mph 1025.2mb 45f 34f
5:06 13 15 mph 1025.1mb 45f 34f
5:00 14 16 mph 1025.2mb 45f 34f
4:54 14 17 mph 1025.1mb 46f 34f
4:48 15 17 mph 1025.1mb 46f 34f
4:36 11 15 mph 1025.4mb 47f 35f
4:30 13 17 mph 1025.4mb 47f 35f
4:24 14 16 mph 1025.4mb 47f 35f
4:18 15 17 mph 1025.3mb 47f 35f
4:12 14 16 mph 1025.5mb 47f 36f
4:06 13 15 mph 1025.5mb 47f 36f
4:00 13 14 mph 1025.6mb 47f 36f
3:54 11 13 mph 1025.5mb 47f 36f
3:48 9 11 mph 1025.5mb 47f 36f
3:36 9 10 mph 1025.5mb 47f 35f
3:30 8 11 mph 1025.3mb 47f 35f
3:24 10 11 mph 1025.2mb 47f 35f
3:18 10 11 mph 1025mb 47f 35f
3:12 9 11 mph 1025mb 46f 35f
3:06 10 14 mph 1025mb 46f 35f
3:00 11 14 mph 1025mb 46f 35f
2:54 13 15 mph 1025mb 46f 35f
2:48 11 14 mph 1025.1mb 46f 35f
2:36 9 10 mph 1025.2mb 46f 35f
2:30 8 11 mph 1025.1mb 46f 34f
2:24 10 13 mph 1024.8mb 46f 34f
2:18 9 11 mph 1025mb 46f 34f
2:12 10 13 mph 1024.8mb 46f 35f
2:06 10 13 mph 1024.8mb 46f 35f
2:00 11 13 mph 1024.9mb 46f 35f
1:54 10 13 mph 1024.9mb 46f 36f
1:48 10 13 mph 1025.1mb 46f 35f
1:36 9 10 mph 1025mb 45f 35f
1:30 9 10 mph 1025mb 45f 35f
1:24 8 10 mph 1024.8mb 45f 35f
1:18 9 13 mph 1024.7mb 45f 35f
1:12 10 13 mph 1024.8mb 45f 35f
1:06 10 11 mph 1024.8mb 44f 35f
1:00 10 11 mph 1024.9mb 43f 35f
12:54 9 10 mph 1025mb 43f 35f
12:48 10 11 mph 1024.9mb 43f 36f
12:36 10 13 mph 1024.9mb 43f 36f
12:30 10 13 mph 1025mb 43f 36f
12:24 9 10 mph 1024.7mb 44f 36f
12:18 9 11 mph 1024.7mb 44f 35f
12:12 9 10 mph 1024.7mb 44f 35f
12:06 7 9 mph 1024.7mb 44f 35f
12:00 7 9 mph 1024.7mb 44f 35f
sáb 01/14 11:54 8 10 mph 1024.5mb 44f 35f
11:48 8 10 mph 1024.4mb 44f 35f
11:36 9 10 mph 1024.4mb 44f 35f
11:30 8 10 mph 1024.4mb 44f 35f
11:24 9 11 mph 1024.4mb 44f 35f
11:18 9 11 mph 1024.5mb 44f 36f
11:12 9 10 mph 1024.4mb 44f 36f
11:06 8 10 mph 1024.4mb 44f 36f
11:00 8 10 mph 1024.3mb 44f 36f
10:54 8 9 mph 1024.4mb 44f 36f
10:48 8 10 mph 1024.4mb 44f 36f
10:36 8 10 mph 1024.3mb 45f 36f
10:30 9 10 mph 1024.3mb 45f 36f
10:24 6 9 mph 1024.3mb 45f 36f
10:18 7 9 mph 1024.3mb 45f 36f
10:12 9 10 mph 1024.2mb 44f 36f
10:06 7 8 mph 1024.2mb 44f 36f
10:00 7 8 mph 1024.2mb 44f 35f
9:54 7 8 mph 1024.2mb 44f 35f
9:48 7 8 mph 1024.2mb 44f 36f
9:36 8 9 mph 1024.2mb 44f 35f
9:30 8 9 mph 1024.2mb 44f 36f
9:24 8 9 mph 1024.1mb 44f 36f
9:18 9
mph
1024.1mb 44f 36f
9:12 8 9 mph 1024.1mb 44f 36f
9:06 6 8 mph 1024mb 44f 36f
9:00 6 9 mph 1023.9mb 44f 36f
8:54 8 10 mph 1023.8mb 44f 37f
8:48 8 10 mph 1023.8mb 44f 37f
8:36 8 11 mph 1023.8mb 44f 37f
8:30 11 13 mph 1023.8mb 44f 37f
8:24 10 13 mph 1023.7mb 44f 37f
8:18 11 14 mph 1023.7mb 44f 38f
8:12 10 13 mph 1023.7mb 44f 38f
8:06 11 14 mph 1023.7mb 44f 38f
8:00 10 14 mph 1023.8mb 44f 38f
7:54 13 14 mph 1023.7mb 44f 38f
7:48 13 15 mph 1023.7mb 44f 38f
7:36 13 14 mph 1023.9mb 44f 38f
7:30 11 14 mph 1023.9mb 44f 38f
7:24 10 13 mph 1023.8mb 44f 38f
7:18 11 14 mph 1023.7mb 44f 38f
7:12 13 15 mph 1023.6mb 44f 38f
7:06 13 15 mph 1023.8mb 45f 38f
7:00 11 14 mph 1023.8mb 45f 38f
6:54 11 15 mph 1023.8mb 45f 38f
6:48 11 14 mph 1023.9mb 45f 38f
6:36 13 15 mph 1023.9mb 45f 39f
6:30 14 15 mph 1023.9mb 45f 39f
6:24 14 16 mph 1023.9mb 45f 39f
6:18 11 14 mph 1023.9mb 45f 39f
6:12 13 15 mph 1023.9mb 45f 40f
6:06 11 14 mph 1023.9mb 45f 40f
6:00 10 11 mph 1023.9mb 45f 40f
5:54 9 13 mph 1023.9mb 45f 40f
5:48 10 13 mph 1023.8mb 45f 40f
5:36 10 15 mph 1023.7mb 45f 40f
5:30 14 15 mph 1023.7mb 45f 41f
5:24 13 15 mph 1023.8mb 45f 41f
5:18 10 15 mph 1023.9mb 45f 41f
5:12 13 15 mph 1023.9mb 45f 41f
5:06 13 15 mph 1023.8mb 45f 41f
5:00 13 16 mph 1023.9mb 45f 41f
4:54 13 16 mph 1023.9mb 45f 42f
4:48 13 15 mph 1024mb 45f 42f
4:36 14 15 mph 1024.1mb 45f 42f
4:30 14 16 mph 1024.1mb 45f 42f
4:24 11 15 mph 1024.1mb 46f 42f
4:18 14 15 mph 1024mb 46f 43f
4:12 13 14 mph 1024mb 46f 43f
4:06 10 13 mph 1024.1mb 46f 43f
4:00 10 13 mph 1024.2mb 46f 43f
3:54 10 14 mph 1024.3mb 46f 43f
3:48 10 14 mph 1024.3mb 46f 43f
3:36 13 15 mph 1024.5mb 46f 44f
3:30 13 15 mph 1024.5mb 46f 44f
3:24 11 14 mph 1024.5mb 46f 44f
3:18 10 14 mph 1024.5mb 46f 44f
3:12 9 14 mph 1024.5mb 45f 44f
3:06 10 13 mph 1024.5mb 46f 44f
3:00 9 11 mph 1024.5mb 46f 45f
2:54 9 13 mph 1024.6mb 46f 44f
2:48 10 14 mph 1024.6mb 46f 45f
2:36 7 9 mph 1024.5mb 46f 44f
2:30 7 10 mph 1024.5mb 46f 44f
2:24 8 11 mph 1024.5mb 46f 44f
2:18 8 10 mph 1024.5mb 46f 44f
2:12 10 13 mph 1024.5mb 46f 45f
2:06 9 11 mph 1024.5mb 46f 44f
2:00 9 11 mph 1024.6mb 46f 44f
1:54 10 13 mph 1024.5mb 46f 44f
1:48 9 13 mph 1024.7mb 46f 44f
1:36 8 11 mph 1024.9mb 46f 45f
1:30 9 10 mph 1024.9mb 46f 45f
1:24 8 11 mph 1025mb 46f 45f
1:18 6 11 mph 1025mb 46f 45f
1:12 9 13 mph 1025.1mb 46f 44f
1:06 9 13 mph 1025.2mb 46f 43f
1:00 11 14 mph 1025.3mb 46f 43f
12:54 10 11 mph 1025.3mb 46f 43f
12:48 10 13 mph 1025.4mb 46f 42f
12:36 9 13 mph 1025.6mb 45f 42f
12:30 10 14 mph 1025.8mb 45f 42f
12:24 10 15 mph 1025.9mb 44f 41f
12:18 14 15 mph 1026mb 44f 41f
12:12 13 15 mph 1026.1mb 44f 41f
12:06 9 16 mph 1026.2mb 44f 41f
12:00 13 17 mph 1026.2mb 44f 41f
11:54 14 17 mph 1026.3mb 44f 40f
11:48 13 15 mph 1026.3mb 44f 40f
11:36 9 17 mph 1026.2mb 44f 40f
11:30 16 21 mph 1026.2mb 44f 39f
11:24 20 23 mph 1026.2mb 44f 39f
11:18 21 24 mph 1026.4mb 44f 38f
11:12 21 23 mph 1026.5mb 44f 38f
11:06 20 24 mph 1026.5mb 44f 38f
11:00 22 24 mph 1026.6mb 44f 37f
10:54 20 24 mph 1026.8mb 44f 37f
10:48 17 24 mph 1026.9mb 43f 37f
10:36 17 22 mph 1027mb 43f 36f
10:30 18 23 mph 1027.1mb 44f 36f
10:24 18 22 mph 1027.2mb 44f 36f
10:18 20 23 mph 1027.3mb 44f 35f
10:12 18 22 mph 1027.4mb 44f 35f
10:06 20 22 mph 1027.4mb 44f 35f
10:00 20 23 mph 1027.5mb 44f 35f
9:54 20 23 mph 1027.6mb 44f 35f
9:48 18 22 mph 1027.8mb 44f 35f
9:36 20 23 mph 1027.9mb 44f 34f
9:30 17 21 mph 1027.8mb 44f 34f
9:24 15 18 mph 1027.9mb 45f 34f
9:18 15 18 mph 1027.7mb 45f 34f
9:12 17 21 mph 1027.7mb 45f 34f
9:06 16 22 mph 1027.7mb 44f 33f
9:00 17 21 mph 1027.7mb 44f 33f
8:54 16 22 mph 1027.6mb 44f 33f
8:48 18 21 mph 1027.5mb 44f 33f
8:36 20 23 mph 1027.5mb 44f 33f
8:30 18 23 mph 1027.5mb 44f 33f
8:24 18 21 mph 1027.6mb 44f 32f
8:18 16 20 mph 1027.6mb 44f 32f
8:12 16 20 mph 1027.6mb 44f 32f
8:06 16 21 mph 1027.5mb 44f 32f
8:00 18 21 mph 1027.5mb 44f 32f
7:54 18 21 mph 1027.4mb 44f 32f
7:48 17 22 mph 1027.5mb 44f 32f
7:36 20 22 mph 1027.4mb 44f 33f
7:30 21 23 mph 1027.4mb 44f 33f
7:24 18 21 mph 1027.5mb 44f 33f
7:18 18 22 mph 1027.6mb 44f 33f
7:12 15 20 mph 1027.6mb 44f 32f
7:06 16 20 mph 1027.5mb 44f 33f
7:00 14 21 mph 1027.5mb 44f 32f
6:54 16 22 mph 1027.4mb 44f 32f
6:48 18 23 mph 1027.4mb 44f 32f
6:36 21 23 mph 1027.5mb 44f 33f
6:30 17 23 mph 1027.7mb 44f 33f
6:24 16 21 mph 1027.7mb 44f 33f
6:18 17 21 mph 1027.8mb 44f 33f
6:12 17 22 mph 1027.7mb 44f 33f
6:06 20 22 mph 1027.8mb 44f 33f
6:00 17 20 mph 1028mb 44f 33f
5:54 16 20 mph 1028mb 44f 33f
5:48 17 20 mph 1028.1mb 44f 33f
5:36 17 21 mph 1028.2mb 44f 33f
5:30 16 20 mph 1028.2mb 44f 32f
5:24 14 17 mph 1028.2mb 44f 33f
5:18 16 21 mph 1028.3mb 45f 33f
5:12 18 21 mph 1028.4mb 44f 33f
5:06 20 22 mph 1028.4mb 44f 33f
5:00 17 22 mph 1028.5mb 44f 33f
4:54 17 22 mph 1028.7mb 44f 33f
4:48 16 20 mph 1028.8mb 44f 33f
4:36 13 17 mph 1028.9mb 44f 33f
4:30 15 18 mph 1028.8mb 45f 33f
4:24 15 18 mph 1028.8mb 45f 33f
4:18 16 20 mph 1028.8mb 45f 33f
4:12 16 20 mph 1028.7mb 46f 33f
4:06 16 20 mph 1028.7mb 46f 33f
4:00 17 20 mph 1028.6mb 46f 33f
3:54 16 20 mph 1028.7mb 46f 33f
3:48 17 20 mph 1028.8mb 46f 33f
3:36 16 22 mph 1029.1mb 47f 33f
3:30 18 22 mph 1029.2mb 47f 33f
3:24 18 23 mph 1029.1mb 47f 33f
3:18 22 24 mph 1029.1mb 47f 33f
3:12 20 23 mph 1028.9mb 47f 34f
3:06 17 23 mph 1028.8mb 47f 33f
3:00 21 23 mph 1028.5mb 47f 33f
2:54 21 24 mph 1028.6mb 47f 33f
2:48 18 23 mph 1028.6mb 47f 34f
2:36 17 20 mph 1028.7mb 47f 34f
2:30 17 20 mph 1028.7mb 47f 34f
2:24 13 20 mph 1028.7mb 47f 33f
2:18 15 18 mph 1028.6mb 47f 33f
2:12 15 20 mph 1028.4mb 47f 34f
2:06 16 21 mph 1028.3mb 47f 34f
2:00 16 23 mph 1028.2mb 47f 34f
1:54 21 23 mph 1028.1mb 47f 34f
1:48 17 22 mph 1028.2mb 47f 34f
1:36 17 23 mph 1028.3mb 46f 34f
1:30 17 22 mph 1028.3mb 46f 34f
1:24 20 24 mph 1028.4mb 46f 34f
1:18 21 23 mph 1028.5mb 46f 34f
1:12 18 22 mph 1028.7mb 46f 35f
1:06 18 22 mph 1028.9mb 46f 35f
1:00 17 21 mph 1028.9mb 46f 35f
12:54 18 21 mph 1029mb 46f 35f
12:48 15 22 mph 1029mb 46f 35f
12:36 17 21 mph 1029mb 44f 35f
12:30 17 22 mph 1029mb 44f 35f
12:24 17 21 mph 1029mb 44f 35f
12:18 14 21 mph 1029.2mb 44f 35f
12:12 14 17 mph 1029.3mb 43f 35f
12:06 14 17 mph 1029.2mb 42f 35f
12:00 14 18 mph 1029.1mb 42f 35f
vie 01/13 11:54 16 20 mph 1029.1mb 42f 35f
11:48 14 18 mph 1029.1mb 42f 35f
11:36 17 21 mph 1028.9mb 43f 35f
11:30 14 18 mph 1029mb 43f 35f
11:24 15 18 mph 1028.9mb 43f 35f
11:18 16 20 mph 1028.9mb 43f 35f
11:12 17 21 mph 1028.9mb 43f 35f
11:06 16 21 mph 1029mb 43f 35f
11:00 16 21 mph 1029mb 43f 35f
10:54 17 20 mph 1029mb 43f 35f
10:48 14 22 mph 1029mb 43f 35f
10:36 17 20 mph 1029mb 44f 35f
10:30 14 17 mph 1029.1mb 44f 35f
10:24 13 16 mph 1029.1mb 44f 35f
10:18 11 16 mph 1028.9mb 44f 35f
10:12 13 18 mph 1028.9mb 44f 35f
10:06 15 20 mph 1028.9mb 44f 35f
10:00 13 16 mph 1028.9mb 44f 35f
9:54 14 17 mph 1029mb 44f 35f
9:48 13 16 mph 1029.1mb 44f 35f
9:36 14 17 mph 1029.3mb 44f 35f
9:30 15 18 mph 1029.3mb 44f 35f
9:24 14 17 mph 1029.3mb 44f 35f
9:18 13 15 mph 1029.4mb 44f 35f
9:12 14 16 mph 1029.4mb 44f 35f
9:06 13 15 mph 1029.4mb 44f 35f
9:00 13 17 mph 1029.4mb 44f 35f
8:54 14 17 mph 1029.5mb 44f 35f
8:48 14 16 mph 1029.5mb 44f 35f
8:36 15 17 mph 1029.6mb 44f 35f
8:30 13 16 mph 1029.7mb 44f 35f
8:24 14 17 mph 1029.6mb 44f 35f
8:18 15 20 mph 1029.6mb 43f 35f
8:12 17 20 mph 1029.5mb 43f 35f
8:06 14 17 mph 1029.5mb 42f 35f
8:00 13 16 mph 1029.5mb 43f 35f
7:54 14 16 mph 1029.6mb 43f 35f
7:48 10 15 mph 1029.5mb 43f 35f
7:36 15 16 mph 1029.3mb 43f 35f
7:30 14
mph
1029.3mb 43f 35f
7:24 10 13 mph 1029.3mb 43f 34f
7:18 10 13 mph 1029.2mb 43f 34f
7:12 10 14 mph 1029.2mb 44f 34f
7:06 10 14 mph 1029.3mb 44f 35f
7:00 9 14 mph 1029.2mb 44f 35f
6:54 14 16 mph 1029mb 44f 35f
6:48 13 17 mph 1029.1mb 44f 35f
6:36 15 21 mph 1028.9mb 44f 35f
6:30 14 20 mph 1028.8mb 44f 35f
6:24 15 18 mph 1029mb 44f 35f
6:18 15 18 mph 1029.1mb 44f 36f
6:12 16 21 mph 1029.2mb 44f 36f
6:06 17 21 mph 1029.2mb 44f 36f
6:00 16 20 mph 1029.3mb 44f 36f
5:54 14 18 mph 1029.4mb 44f 36f
5:48 16 18 mph 1029.4mb 44f 36f
5:36 16 20 mph 1029.3mb 44f 36f
5:30 14 17 mph 1029.4mb 44f 36f
5:24 15 17 mph 1029.4mb 44f 36f
5:18 14 16 mph 1029.5mb 44f 36f
5:12 13 14 mph 1029.3mb 44f 36f
5:06 14 17 mph 1029mb 45f 36f
5:00 16 18 mph 1028.9mb 45f 36f
4:54 16 18 mph 1029mb 45f 36f
4:48 14 16 mph 1029mb 45f 36f
4:36 11 17 mph 1028.8mb 45f 36f
4:30 14 17 mph 1028.6mb 45f 36f
4:24 14 18 mph 1028.6mb 45f 37f
4:18 14 18 mph 1028.7mb 45f 37f
4:12 14 17 mph 1028.8mb 45f 37f
4:06 13 18 mph 1028.7mb 45f 36f
4:00 17 21 mph 1028.7mb 45f 36f
3:36 20 23 mph 1028.9mb 45f 37f
3:30 20 24 mph 1029mb 45f 37f
3:24 17 22 mph 1029.2mb 45f 37f
3:18 18 22 mph 1029.3mb 45f 37f
3:12 18 22 mph 1029.4mb 45f 37f
3:06 16 20 mph 1029.5mb 46f 37f
3:00 16 20 mph 1029.5mb 46f 37f
2:54 14 18 mph 1029.5mb 46f 37f
2:48 17 20 mph 1029.4mb 46f 37f
2:36 16 18 mph 1029.3mb 46f 37f
2:30 16 18 mph 1029mb 46f 37f
2:24 17 21 mph 1029mb 46f 37f
2:18 15 21 mph 1028.9mb 47f 37f
2:12 17 22 mph 1028.9mb 47f 37f
2:06 17 22 mph 1028.8mb 47f 37f
2:00 17 22 mph 1028.9mb 47f 37f
1:54 17 21 mph 1029mb 47f 37f
1:48 16 21 mph 1029.1mb 47f 37f
1:36 15 21 mph 1028.9mb 47f 36f
1:30 17 21 mph 1028.9mb 47f 36f
1:24 18 22 mph 1028.9mb 47f 36f
1:18 16 21 mph 1028.9mb 47f 36f
1:12 15 21 mph 1029.1mb 47f 36f
1:06 14 20 mph 1029.2mb 47f 36f
1:00 15 20 mph 1029.2mb 47f 36f
12:54 17 20 mph 1029.3mb 46f 36f
12:48 16 21 mph 1029.3mb 46f 36f
12:36 18 21 mph 1029.4mb 46f 36f
12:30 17 21 mph 1029.6mb 46f 35f
12:24 16 21 mph 1029.6mb 46f 35f
12:18 16 20 mph 1029.7mb 46f 35f
12:12 16 21 mph 1029.7mb 46f 35f
12:06 18 22 mph 1029.8mb 46f 35f
12:00 14 20 mph 1030mb 46f 35f
11:54 14 22 mph 1030.1mb 46f 35f
11:48 16 21 mph 1030.1mb 46f 35f
11:36 17 23 mph 1030.2mb 45f 35f
11:30 18 22 mph 1030.4mb 45f 34f
11:24 16 21 mph 1030.4mb 44f 35f
11:18 13 18 mph 1030.5mb 44f 35f
11:12 13 17 mph 1030.6mb 44f 34f
11:06 15 20 mph 1030.6mb 44f 35f
11:00 15 21 mph 1030.5mb 44f 34f
10:54 16 20 mph 1030.5mb 44f 34f
10:48 15 20 mph 1030.4mb 44f 34f
10:36 18 22 mph 1030.3mb 44f 33f
10:30 18 22 mph 1030.2mb 44f 33f
10:24 17 22 mph 1030.3mb 44f 33f
10:18 18 21 mph 1030.1mb 43f 33f
10:12 15 20 mph 1029.9mb 43f 33f
10:06 17 23 mph 1029.8mb 43f 33f
10:00 14 20 mph 1029.7mb 43f 33f
9:54 16 20 mph 1029.7mb 43f 33f
9:48 16 22 mph 1029.6mb 43f 33f
9:36 17 23 mph 1029.5mb 43f 33f
9:30 15 21 mph 1029.5mb 43f 33f
9:24 20 23 mph 1029.5mb 43f 33f
9:18 16 21 mph 1029.4mb 44f 32f
9:12 17 23 mph 1029.3mb 44f 32f
9:06 20 23 mph 1029.3mb 44f 32f
9:00 17 22 mph 1029.3mb 44f 31f
8:54 15 22 mph 1029.4mb 44f 31f
8:48 16 23 mph 1029.4mb 44f 31f
8:36 15 20 mph 1029.3mb 44f 31f
8:30 17 21 mph 1029.3mb 44f 31f
8:24 15 18 mph 1029.2mb 44f 31f
8:18 13 18 mph 1029.1mb 44f 31f
8:12 17 21 mph 1029mb 44f 31f
8:06 17 21 mph 1029mb 44f 31f
8:00 15 20 mph 1029mb 44f 31f
7:54 14 18 mph 1029.1mb 44f 31f
7:48 15 17 mph 1029.1mb 44f 31f